KFAM/FAM METAR and TAF weather

Enter ICAO airport designator
Station Type Date Time Source
KFAM METAR 2022/01/26 07:56 UTC NOAA

KFAM 260756Z AUTO 35005KT 10SM CLR M11/M17 A3049 RMK AO2 SLP351 T11111172 FZRANO


Station Type Date Time Source
KFAM Decoded METAR 2022/01/26 07:56 UTC NOAA

Farmington Airport, MO, United States (KFAM) 37-46N 090-26W
Jan 26, 2022 - 02:56 AM EST / 2022.01.26 0756 UTC
Wind: from the N (350 degrees) at 6 MPH (5 KT):0
Visibility: 10 mile(s):0
Sky conditions: clear
Temperature: 12.0 F (-11.1 C)
Windchill: 3 F (-16 C):1
Dew Point: 1.0 F (-17.2 C)
Relative Humidity: 60%
Pressure (altimeter): 30.49 in. Hg (1032 hPa)
ob: KFAM 260756Z AUTO 35005KT 10SM CLR M11/M17 A3049 RMK AO2 SLP351 T11111172 FZRANO
cycle: 8

Station Type Date Time Source
KFAM TAF UTC NOAA

Error!

Example: see airport list